sensor_id;sensor_type;location;lat;lon;timestamp;temperature;humidity
39751;DHT22;37579;51.074;17.004;2023-02-25T00:02:06;24.40;84.10
39751;DHT22;37579;51.074;17.004;2023-02-25T00:04:32;24.40;83.80
39751;DHT22;37579;51.074;17.004;2023-02-25T00:06:58;24.40;83.40
39751;DHT22;37579;51.074;17.004;2023-02-25T00:09:24;24.30;82.50
39751;DHT22;37579;51.074;17.004;2023-02-25T00:11:50;24.30;82.60
39751;DHT22;37579;51.074;17.004;2023-02-25T00:14:15;24.30;82.30
39751;DHT22;37579;51.074;17.004;2023-02-25T00:16:41;24.30;82.50
39751;DHT22;37579;51.074;17.004;2023-02-25T00:19:07;24.30;82.30
39751;DHT22;37579;51.074;17.004;2023-02-25T00:21:32;24.30;82.40
39751;DHT22;37579;51.074;17.004;2023-02-25T00:23:58;24.30;82.50
39751;DHT22;37579;51.074;17.004;2023-02-25T00:26:24;24.30;82.50
39751;DHT22;37579;51.074;17.004;2023-02-25T00:28:50;24.20;82.50
39751;DHT22;37579;51.074;17.004;2023-02-25T00:31:17;24.30;82.50
39751;DHT22;37579;51.074;17.004;2023-02-25T00:33:43;24.20;82.40
39751;DHT22;37579;51.074;17.004;2023-02-25T00:36:10;24.20;82.10
39751;DHT22;37579;51.074;17.004;2023-02-25T00:38:36;24.20;82.40
39751;DHT22;37579;51.074;17.004;2023-02-25T00:41:09;24.30;82.00
39751;DHT22;37579;51.074;17.004;2023-02-25T00:43:38;24.30;81.80
39751;DHT22;37579;51.074;17.004;2023-02-25T00:46:04;24.30;81.60
39751;DHT22;37579;51.074;17.004;2023-02-25T00:48:30;24.20;81.00
39751;DHT22;37579;51.074;17.004;2023-02-25T00:50:56;24.20;81.10
39751;DHT22;37579;51.074;17.004;2023-02-25T00:53:21;24.30;80.80
39751;DHT22;37579;51.074;17.004;2023-02-25T00:55:47;24.20;80.70
39751;DHT22;37579;51.074;17.004;2023-02-25T00:58:13;24.20;80.70
39751;DHT22;37579;51.074;17.004;2023-02-25T01:00:38;24.20;80.50
39751;DHT22;37579;51.074;17.004;2023-02-25T01:03:05;24.20;80.50
39751;DHT22;37579;51.074;17.004;2023-02-25T01:05:31;24.20;80.50
39751;DHT22;37579;51.074;17.004;2023-02-25T01:07:57;24.20;80.60
39751;DHT22;37579;51.074;17.004;2023-02-25T01:10:22;24.20;80.60
39751;DHT22;37579;51.074;17.004;2023-02-25T01:12:48;24.10;80.80
39751;DHT22;37579;51.074;17.004;2023-02-25T01:15:14;24.10;80.90
39751;DHT22;37579;51.074;17.004;2023-02-25T01:17:40;24.20;80.80
39751;DHT22;37579;51.074;17.004;2023-02-25T01:20:06;24.20;80.60
39751;DHT22;37579;51.074;17.004;2023-02-25T01:22:35;24.20;80.70
39751;DHT22;37579;51.074;17.004;2023-02-25T01:25:06;24.20;80.60
39751;DHT22;37579;51.074;17.004;2023-02-25T01:27:36;24.20;80.90
39751;DHT22;37579;51.074;17.004;2023-02-25T01:30:02;24.20;81.10
39751;DHT22;37579;51.074;17.004;2023-02-25T01:32:28;24.10;81.10
39751;DHT22;37579;51.074;17.004;2023-02-25T01:34:54;24.20;81.20
39751;DHT22;37579;51.074;17.004;2023-02-25T01:37:21;24.20;80.90
39751;DHT22;37579;51.074;17.004;2023-02-25T01:39:49;24.10;81.10
39751;DHT22;37579;51.074;17.004;2023-02-25T01:42:16;24.10;81.30
39751;DHT22;37579;51.074;17.004;2023-02-25T01:47:30;24.20;81.10
39751;DHT22;37579;51.074;17.004;2023-02-25T01:50:00;24.10;80.40
39751;DHT22;37579;51.074;17.004;2023-02-25T01:52:27;24.10;80.50
39751;DHT22;37579;51.074;17.004;2023-02-25T01:54:54;24.10;80.90
39751;DHT22;37579;51.074;17.004;2023-02-25T01:57:20;24.10;81.10
39751;DHT22;37579;51.074;17.004;2023-02-25T01:59:47;24.10;81.20
39751;DHT22;37579;51.074;17.004;2023-02-25T02:02:14;24.10;81.10
39751;DHT22;37579;51.074;17.004;2023-02-25T02:04:41;24.10;81.00
39751;DHT22;37579;51.074;17.004;2023-02-25T02:07:07;24.10;81.40
39751;DHT22;37579;51.074;17.004;2023-02-25T02:09:33;24.10;81.50
39751;DHT22;37579;51.074;17.004;2023-02-25T02:12:00;24.10;81.50
39751;DHT22;37579;51.074;17.004;2023-02-25T02:14:27;24.10;81.40
39751;DHT22;37579;51.074;17.004;2023-02-25T02:21:59;24.10;81.50
39751;DHT22;37579;51.074;17.004;2023-02-25T02:45:18;24.10;81.20
39751;DHT22;37579;51.074;17.004;2023-02-25T02:47:45;24.10;81.30
39751;DHT22;37579;51.074;17.004;2023-02-25T02:52:59;24.00;81.00
39751;DHT22;37579;51.074;17.004;2023-02-25T02:55:32;24.10;81.00
39751;DHT22;37579;51.074;17.004;2023-02-25T02:58:02;24.10;80.70
39751;DHT22;37579;51.074;17.004;2023-02-25T03:00:29;24.10;80.80
39751;DHT22;37579;51.074;17.004;2023-02-25T03:03:04;24.10;80.00
39751;DHT22;37579;51.074;17.004;2023-02-25T03:05:31;24.00;80.10
39751;DHT22;37579;51.074;17.004;2023-02-25T03:08:13;24.00;80.20
39751;DHT22;37579;51.074;17.004;2023-02-25T03:10:40;24.10;80.00
39751;DHT22;37579;51.074;17.004;2023-02-25T03:13:07;24.00;79.70
39751;DHT22;37579;51.074;17.004;2023-02-25T03:15:33;24.10;79.40
39751;DHT22;37579;51.074;17.004;2023-02-25T03:18:11;24.00;79.50
39751;DHT22;37579;51.074;17.004;2023-02-25T03:20:41;24.00;79.70
39751;DHT22;37579;51.074;17.004;2023-02-25T03:23:08;24.00;79.80
39751;DHT22;37579;51.074;17.004;2023-02-25T03:25:43;24.00;78.90
39751;DHT22;37579;51.074;17.004;2023-02-25T03:28:21;24.00;79.50
39751;DHT22;37579;51.074;17.004;2023-02-25T03:35:56;24.00;79.10
39751;DHT22;37579;51.074;17.004;2023-02-25T03:38:24;24.00;78.80
39751;DHT22;37579;51.074;17.004;2023-02-25T03:40:51;24.00;79.30
39751;DHT22;37579;51.074;17.004;2023-02-25T03:43:21;24.00;79.10
39751;DHT22;37579;51.074;17.004;2023-02-25T03:45:48;24.00;78.90
39751;DHT22;37579;51.074;17.004;2023-02-25T03:48:14;24.00;79.00
39751;DHT22;37579;51.074;17.004;2023-02-25T03:50:43;24.00;79.10
39751;DHT22;37579;51.074;17.004;2023-02-25T03:53:11;24.00;78.80
39751;DHT22;37579;51.074;17.004;2023-02-25T03:55:47;24.00;78.50
39751;DHT22;37579;51.074;17.004;2023-02-25T03:58:13;23.90;78.50
39751;DHT22;37579;51.074;17.004;2023-02-25T04:00:39;24.00;78.70
39751;DHT22;37579;51.074;17.004;2023-02-25T04:03:06;23.90;78.60
39751;DHT22;37579;51.074;17.004;2023-02-25T04:05:32;23.90;78.40
39751;DHT22;37579;51.074;17.004;2023-02-25T04:07:58;23.90;78.10
39751;DHT22;37579;51.074;17.004;2023-02-25T04:10:26;24.00;78.20
39751;DHT22;37579;51.074;17.004;2023-02-25T04:12:52;23.90;77.90
39751;DHT22;37579;51.074;17.004;2023-02-25T04:15:18;23.90;78.10
39751;DHT22;37579;51.074;17.004;2023-02-25T04:17:45;23.90;78.00
39751;DHT22;37579;51.074;17.004;2023-02-25T04:20:12;24.00;78.00
39751;DHT22;37579;51.074;17.004;2023-02-25T04:22:38;23.90;78.10
39751;DHT22;37579;51.074;17.004;2023-02-25T04:25:04;24.00;78.60
39751;DHT22;37579;51.074;17.004;2023-02-25T04:27:29;24.00;78.20
39751;DHT22;37579;51.074;17.004;2023-02-25T04:29:57;23.90;77.80
39751;DHT22;37579;51.074;17.004;2023-02-25T04:32:22;23.90;77.70
39751;DHT22;37579;51.074;17.004;2023-02-25T04:34:48;23.90;77.70
39751;DHT22;37579;51.074;17.004;2023-02-25T04:37:14;23.90;77.70
39751;DHT22;37579;51.074;17.004;2023-02-25T04:39:40;23.90;77.90
39751;DHT22;37579;51.074;17.004;2023-02-25T04:42:06;23.90;77.60
39751;DHT22;37579;51.074;17.004;2023-02-25T04:44:31;23.90;77.60
39751;DHT22;37579;51.074;17.004;2023-02-25T04:46:57;23.90;77.70
39751;DHT22;37579;51.074;17.004;2023-02-25T04:49:23;23.90;77.70
39751;DHT22;37579;51.074;17.004;2023-02-25T04:51:49;23.90;77.50
39751;DHT22;37579;51.074;17.004;2023-02-25T04:54:16;23.90;77.60
39751;DHT22;37579;51.074;17.004;2023-02-25T04:56:43;23.90;77.30
39751;DHT22;37579;51.074;17.004;2023-02-25T04:59:09;23.90;78.10
39751;DHT22;37579;51.074;17.004;2023-02-25T05:01:36;23.90;77.30
39751;DHT22;37579;51.074;17.004;2023-02-25T05:04:01;23.90;77.30
39751;DHT22;37579;51.074;17.004;2023-02-25T05:06:27;23.90;77.20
39751;DHT22;37579;51.074;17.004;2023-02-25T05:08:53;23.90;77.20
39751;DHT22;37579;51.074;17.004;2023-02-25T05:11:21;23.90;77.20
39751;DHT22;37579;51.074;17.004;2023-02-25T05:13:47;23.90;77.20
39751;DHT22;37579;51.074;17.004;2023-02-25T05:16:14;23.90;77.00
39751;DHT22;37579;51.074;17.004;2023-02-25T05:18:44;23.90;77.00
39751;DHT22;37579;51.074;17.004;2023-02-25T05:21:10;23.90;76.90
39751;DHT22;37579;51.074;17.004;2023-02-25T05:23:39;23.90;76.90
39751;DHT22;37579;51.074;17.004;2023-02-25T05:26:06;23.90;77.10
39751;DHT22;37579;51.074;17.004;2023-02-25T05:28:31;23.90;77.00
39751;DHT22;37579;51.074;17.004;2023-02-25T05:30:57;23.90;77.20
39751;DHT22;37579;51.074;17.004;2023-02-25T05:33:23;23.80;76.90
39751;DHT22;37579;51.074;17.004;2023-02-25T05:35:49;23.90;76.80
39751;DHT22;37579;51.074;17.004;2023-02-25T05:38:15;23.80;77.20
39751;DHT22;37579;51.074;17.004;2023-02-25T05:40:40;23.80;76.70
39751;DHT22;37579;51.074;17.004;2023-02-25T05:43:06;23.80;76.90
39751;DHT22;37579;51.074;17.004;2023-02-25T05:45:33;23.90;76.80
39751;DHT22;37579;51.074;17.004;2023-02-25T05:47:59;23.80;76.50
39751;DHT22;37579;51.074;17.004;2023-02-25T05:50:25;23.90;76.70
39751;DHT22;37579;51.074;17.004;2023-02-25T05:52:51;23.80;76.80
39751;DHT22;37579;51.074;17.004;2023-02-25T05:55:16;23.80;76.70
39751;DHT22;37579;51.074;17.004;2023-02-25T05:57:42;23.80;76.70
39751;DHT22;37579;51.074;17.004;2023-02-25T06:00:08;23.80;76.80
39751;DHT22;37579;51.074;17.004;2023-02-25T06:02:37;23.80;76.80
39751;DHT22;37579;51.074;17.004;2023-02-25T06:05:03;23.90;76.40
39751;DHT22;37579;51.074;17.004;2023-02-25T06:07:29;23.80;76.70
39751;DHT22;37579;51.074;17.004;2023-02-25T06:09:56;23.80;76.30
39751;DHT22;37579;51.074;17.004;2023-02-25T06:12:27;23.80;76.60
39751;DHT22;37579;51.074;17.004;2023-02-25T06:14:53;23.80;76.60
39751;DHT22;37579;51.074;17.004;2023-02-25T06:17:18;23.80;76.20
39751;DHT22;37579;51.074;17.004;2023-02-25T06:19:44;23.90;76.20
39751;DHT22;37579;51.074;17.004;2023-02-25T06:22:10;24.10;75.60
39751;DHT22;37579;51.074;17.004;2023-02-25T06:24:35;24.20;75.50
39751;DHT22;37579;51.074;17.004;2023-02-25T06:27:01;24.30;75.40
39751;DHT22;37579;51.074;17.004;2023-02-25T06:29:27;24.20;75.50
39751;DHT22;37579;51.074;17.004;2023-02-25T06:31:53;24.30;75.10
39751;DHT22;37579;51.074;17.004;2023-02-25T06:34:19;24.30;74.70
39751;DHT22;37579;51.074;17.004;2023-02-25T06:36:45;24.40;74.80
39751;DHT22;37579;51.074;17.004;2023-02-25T06:39:11;24.40;74.60
39751;DHT22;37579;51.074;17.004;2023-02-25T06:41:36;24.40;74.50
39751;DHT22;37579;51.074;17.004;2023-02-25T06:44:02;24.40;74.40
39751;DHT22;37579;51.074;17.004;2023-02-25T06:46:28;24.40;74.50
39751;DHT22;37579;51.074;17.004;2023-02-25T06:48:54;24.40;74.30
39751;DHT22;37579;51.074;17.004;2023-02-25T06:51:20;24.40;74.10
39751;DHT22;37579;51.074;17.004;2023-02-25T06:53:46;24.50;74.20
39751;DHT22;37579;51.074;17.004;2023-02-25T06:56:13;24.50;74.10
39751;DHT22;37579;51.074;17.004;2023-02-25T06:58:39;24.50;74.00
39751;DHT22;37579;51.074;17.004;2023-02-25T07:01:14;24.50;74.00
39751;DHT22;37579;51.074;17.004;2023-02-25T07:03:40;24.50;74.10
39751;DHT22;37579;51.074;17.004;2023-02-25T07:06:08;24.50;73.80
39751;DHT22;37579;51.074;17.004;2023-02-25T07:08:33;24.50;73.60
39751;DHT22;37579;51.074;17.004;2023-02-25T07:13:44;24.50;73.60
39751;DHT22;37579;51.074;17.004;2023-02-25T07:16:11;24.50;73.60
39751;DHT22;37579;51.074;17.004;2023-02-25T07:18:37;24.60;73.80
39751;DHT22;37579;51.074;17.004;2023-02-25T07:21:02;24.60;73.90
39751;DHT22;37579;51.074;17.004;2023-02-25T07:23:28;24.60;73.70
39751;DHT22;37579;51.074;17.004;2023-02-25T07:25:54;24.60;73.60
39751;DHT22;37579;51.074;17.004;2023-02-25T07:28:20;24.60;73.80
39751;DHT22;37579;51.074;17.004;2023-02-25T07:30:45;24.50;73.70
39751;DHT22;37579;51.074;17.004;2023-02-25T07:33:11;24.50;73.90
39751;DHT22;37579;51.074;17.004;2023-02-25T07:35:37;24.50;73.90
39751;DHT22;37579;51.074;17.004;2023-02-25T07:38:02;24.50;73.80
39751;DHT22;37579;51.074;17.004;2023-02-25T07:40:28;24.50;73.80
39751;DHT22;37579;51.074;17.004;2023-02-25T07:42:54;24.50;73.70
39751;DHT22;37579;51.074;17.004;2023-02-25T07:45:20;24.50;73.90
39751;DHT22;37579;51.074;17.004;2023-02-25T07:47:45;24.40;73.70
39751;DHT22;37579;51.074;17.004;2023-02-25T07:50:11;24.40;73.70
39751;DHT22;37579;51.074;17.004;2023-02-25T07:52:37;24.40;73.90
39751;DHT22;37579;51.074;17.004;2023-02-25T07:55:03;24.40;73.90
39751;DHT22;37579;51.074;17.004;2023-02-25T07:57:29;24.40;74.20
39751;DHT22;37579;51.074;17.004;2023-02-25T07:59:55;24.40;74.30
39751;DHT22;37579;51.074;17.004;2023-02-25T08:02:20;24.30;74.10
39751;DHT22;37579;51.074;17.004;2023-02-25T08:04:46;24.40;74.40
39751;DHT22;37579;51.074;17.004;2023-02-25T08:07:12;24.40;74.30
39751;DHT22;37579;51.074;17.004;2023-02-25T08:09:38;24.30;74.40
39751;DHT22;37579;51.074;17.004;2023-02-25T08:12:04;24.40;74.40
39751;DHT22;37579;51.074;17.004;2023-02-25T08:14:29;24.30;74.50
39751;DHT22;37579;51.074;17.004;2023-02-25T08:16:56;24.30;74.50
39751;DHT22;37579;51.074;17.004;2023-02-25T08:19:22;24.30;74.60
39751;DHT22;37579;51.074;17.004;2023-02-25T08:21:47;24.30;75.00
39751;DHT22;37579;51.074;17.004;2023-02-25T08:24:13;24.30;74.90
39751;DHT22;37579;51.074;17.004;2023-02-25T08:26:39;24.20;75.00
39751;DHT22;37579;51.074;17.004;2023-02-25T08:29:05;24.20;74.70
39751;DHT22;37579;51.074;17.004;2023-02-25T08:31:32;24.20;74.80
39751;DHT22;37579;51.074;17.004;2023-02-25T08:33:58;24.20;74.30
39751;DHT22;37579;51.074;17.004;2023-02-25T08:36:25;24.20;74.40
39751;DHT22;37579;51.074;17.004;2023-02-25T08:38:52;24.20;74.50
39751;DHT22;37579;51.074;17.004;2023-02-25T08:41:19;24.20;74.50
39751;DHT22;37579;51.074;17.004;2023-02-25T08:43:48;24.10;74.30
39751;DHT22;37579;51.074;17.004;2023-02-25T08:46:18;24.10;75.10
39751;DHT22;37579;51.074;17.004;2023-02-25T08:48:44;24.10;74.40
39751;DHT22;37579;51.074;17.004;2023-02-25T08:51:12;24.10;74.60
39751;DHT22;37579;51.074;17.004;2023-02-25T08:53:39;24.00;74.70
39751;DHT22;37579;51.074;17.004;2023-02-25T08:56:06;24.00;75.00
39751;DHT22;37579;51.074;17.004;2023-02-25T08:58:31;24.00;74.80
39751;DHT22;37579;51.074;17.004;2023-02-25T09:00:57;24.10;74.70
39751;DHT22;37579;51.074;17.004;2023-02-25T09:03:24;24.10;74.70
39751;DHT22;37579;51.074;17.004;2023-02-25T09:05:53;24.00;74.70
39751;DHT22;37579;51.074;17.004;2023-02-25T09:08:19;24.00;74.60
39751;DHT22;37579;51.074;17.004;2023-02-25T09:10:45;24.10;74.40
39751;DHT22;37579;51.074;17.004;2023-02-25T09:13:11;24.20;74.10
39751;DHT22;37579;51.074;17.004;2023-02-25T09:15:36;24.20;74.00
39751;DHT22;37579;51.074;17.004;2023-02-25T09:18:02;24.20;74.00
39751;DHT22;37579;51.074;17.004;2023-02-25T09:20:28;24.20;73.90
39751;DHT22;37579;51.074;17.004;2023-02-25T09:22:54;24.20;73.70
39751;DHT22;37579;51.074;17.004;2023-02-25T09:25:20;24.20;73.60
39751;DHT22;37579;51.074;17.004;2023-02-25T09:27:45;24.30;73.40
39751;DHT22;37579;51.074;17.004;2023-02-25T09:30:11;24.30;73.50
39751;DHT22;37579;51.074;17.004;2023-02-25T09:32:37;24.30;71.70
39751;DHT22;37579;51.074;17.004;2023-02-25T09:35:03;23.30;64.70
39751;DHT22;37579;51.074;17.004;2023-02-25T09:37:32;23.30;69.00
39751;DHT22;37579;51.074;17.004;2023-02-25T09:39:58;23.50;70.40
39751;DHT22;37579;51.074;17.004;2023-02-25T09:42:25;23.80;70.10
39751;DHT22;37579;51.074;17.004;2023-02-25T09:44:52;23.90;69.90
39751;DHT22;37579;51.074;17.004;2023-02-25T09:49:51;24.10;70.30
39751;DHT22;37579;51.074;17.004;2023-02-25T09:55:55;24.00;71.00
39751;DHT22;37579;51.074;17.004;2023-02-25T10:01:03;24.00;71.30
39751;DHT22;37579;51.074;17.004;2023-02-25T10:03:41;24.10;71.20
39751;DHT22;37579;51.074;17.004;2023-02-25T10:06:11;24.10;71.50
39751;DHT22;37579;51.074;17.004;2023-02-25T10:08:44;24.10;71.50
39751;DHT22;37579;51.074;17.004;2023-02-25T10:11:17;24.10;71.80
39751;DHT22;37579;51.074;17.004;2023-02-25T10:23:50;24.20;72.80
39751;DHT22;37579;51.074;17.004;2023-02-25T10:26:22;24.20;72.70
39751;DHT22;37579;51.074;17.004;2023-02-25T10:28:57;24.20;72.90
39751;DHT22;37579;51.074;17.004;2023-02-25T10:31:25;24.30;72.80
39751;DHT22;37579;51.074;17.004;2023-02-25T10:33:55;24.30;72.90
39751;DHT22;37579;51.074;17.004;2023-02-25T10:36:24;24.30;73.40
39751;DHT22;37579;51.074;17.004;2023-02-25T10:38:52;24.30;73.80
39751;DHT22;37579;51.074;17.004;2023-02-25T10:41:19;24.30;73.90
39751;DHT22;37579;51.074;17.004;2023-02-25T10:43:47;24.30;74.70
39751;DHT22;37579;51.074;17.004;2023-02-25T10:48:59;24.40;75.00
39751;DHT22;37579;51.074;17.004;2023-02-25T10:51:25;24.40;75.10
39751;DHT22;37579;51.074;17.004;2023-02-25T10:56:21;24.50;76.30
39751;DHT22;37579;51.074;17.004;2023-02-25T10:59:01;24.60;76.00
39751;DHT22;37579;51.074;17.004;2023-02-25T11:01:38;24.50;76.40
39751;DHT22;37579;51.074;17.004;2023-02-25T11:04:07;24.50;76.30
39751;DHT22;37579;51.074;17.004;2023-02-25T11:06:37;24.50;76.20
39751;DHT22;37579;51.074;17.004;2023-02-25T11:09:25;24.60;76.00
39751;DHT22;37579;51.074;17.004;2023-02-25T11:11:52;24.60;75.90
39751;DHT22;37579;51.074;17.004;2023-02-25T11:14:24;24.60;76.00
39751;DHT22;37579;51.074;17.004;2023-02-25T11:16:52;24.60;75.60
39751;DHT22;37579;51.074;17.004;2023-02-25T11:19:27;24.70;75.20
39751;DHT22;37579;51.074;17.004;2023-02-25T11:21:53;24.70;75.20
39751;DHT22;37579;51.074;17.004;2023-02-25T11:26:48;24.70;74.70
39751;DHT22;37579;51.074;17.004;2023-02-25T11:29:17;24.70;75.20
39751;DHT22;37579;51.074;17.004;2023-02-25T11:31:47;24.70;74.80
39751;DHT22;37579;51.074;17.004;2023-02-25T11:36:40;24.80;75.20
39751;DHT22;37579;51.074;17.004;2023-02-25T11:39:13;24.70;75.00
39751;DHT22;37579;51.074;17.004;2023-02-25T11:41:40;24.70;75.00
39751;DHT22;37579;51.074;17.004;2023-02-25T11:47:12;24.70;75.00
39751;DHT22;37579;51.074;17.004;2023-02-25T11:55:01;24.80;74.40
39751;DHT22;37579;51.074;17.004;2023-02-25T12:05:26;25.00;75.10
39751;DHT22;37579;51.074;17.004;2023-02-25T12:41:27;25.30;75.20
39751;DHT22;37579;51.074;17.004;2023-02-25T12:59:48;25.00;74.40
39751;DHT22;37579;51.074;17.004;2023-02-25T13:02:24;25.00;74.50
39751;DHT22;37579;51.074;17.004;2023-02-25T13:04:57;24.90;74.70
39751;DHT22;37579;51.074;17.004;2023-02-25T13:12:32;24.70;75.50
39751;DHT22;37579;51.074;17.004;2023-02-25T13:15:08;24.60;75.90
39751;DHT22;37579;51.074;17.004;2023-02-25T13:17:41;24.60;75.90
39751;DHT22;37579;51.074;17.004;2023-02-25T13:32:40;24.60;75.20
39751;DHT22;37579;51.074;17.004;2023-02-25T13:35:23;24.60;75.40
39751;DHT22;37579;51.074;17.004;2023-02-25T13:44:04;24.70;75.90
39751;DHT22;37579;51.074;17.004;2023-02-25T13:56:22;24.60;77.70
39751;DHT22;37579;51.074;17.004;2023-02-25T14:01:46;24.60;77.60
39751;DHT22;37579;51.074;17.004;2023-02-25T14:04:22;24.60;77.40
39751;DHT22;37579;51.074;17.004;2023-02-25T14:09:56;24.60;77.40
39751;DHT22;37579;51.074;17.004;2023-02-25T14:23:25;24.20;56.60
39751;DHT22;37579;51.074;17.004;2023-02-25T14:28:56;24.00;57.70
39751;DHT22;37579;51.074;17.004;2023-02-25T14:37:24;24.00;57.70
39751;DHT22;37579;51.074;17.004;2023-02-25T14:43:07;24.00;58.00
39751;DHT22;37579;51.074;17.004;2023-02-25T14:54:23;24.00;58.90
39751;DHT22;37579;51.074;17.004;2023-02-25T15:24:02;24.10;57.60
39751;DHT22;37579;51.074;17.004;2023-02-25T15:26:44;24.10;57.60
39751;DHT22;37579;51.074;17.004;2023-02-25T15:34:36;24.10;57.80
39751;DHT22;37579;51.074;17.004;2023-02-25T15:39:49;24.10;57.70
39751;DHT22;37579;51.074;17.004;2023-02-25T15:42:15;24.10;57.60
39751;DHT22;37579;51.074;17.004;2023-02-25T15:44:42;24.10;57.40
39751;DHT22;37579;51.074;17.004;2023-02-25T15:49:47;24.00;57.30
39751;DHT22;37579;51.074;17.004;2023-02-25T15:52:49;24.00;57.10
39751;DHT22;37579;51.074;17.004;2023-02-25T15:55:36;24.00;56.90
39751;DHT22;37579;51.074;17.004;2023-02-25T16:00:52;24.00;56.90
39751;DHT22;37579;51.074;17.004;2023-02-25T16:03:38;24.00;56.90
39751;DHT22;37579;51.074;17.004;2023-02-25T16:06:21;24.00;57.00
39751;DHT22;37579;51.074;17.004;2023-02-25T16:11:49;23.90;57.10
39751;DHT22;37579;51.074;17.004;2023-02-25T16:16:56;24.10;57.10
39751;DHT22;37579;51.074;17.004;2023-02-25T16:19:29;24.20;57.60
39751;DHT22;37579;51.074;17.004;2023-02-25T16:22:04;24.20;57.80
39751;DHT22;37579;51.074;17.004;2023-02-25T16:24:35;24.30;57.90
39751;DHT22;37579;51.074;17.004;2023-02-25T16:27:04;24.40;57.80
39751;DHT22;37579;51.074;17.004;2023-02-25T16:37:55;24.60;58.00
39751;DHT22;37579;51.074;17.004;2023-02-25T16:40:29;24.60;57.60
39751;DHT22;37579;51.074;17.004;2023-02-25T16:42:57;24.60;57.70
39751;DHT22;37579;51.074;17.004;2023-02-25T16:45:27;24.50;57.40
39751;DHT22;37579;51.074;17.004;2023-02-25T16:48:12;24.50;57.00
39751;DHT22;37579;51.074;17.004;2023-02-25T16:50:39;24.50;57.10
39751;DHT22;37579;51.074;17.004;2023-02-25T16:53:16;24.50;57.20
39751;DHT22;37579;51.074;17.004;2023-02-25T16:55:43;24.50;57.10
39751;DHT22;37579;51.074;17.004;2023-02-25T16:58:23;24.60;57.00
39751;DHT22;37579;51.074;17.004;2023-02-25T17:00:58;24.60;57.00
39751;DHT22;37579;51.074;17.004;2023-02-25T17:03:29;24.70;57.10
39751;DHT22;37579;51.074;17.004;2023-02-25T17:05:58;24.70;57.20
39751;DHT22;37579;51.074;17.004;2023-02-25T17:08:24;24.70;56.90
39751;DHT22;37579;51.074;17.004;2023-02-25T17:10:53;24.60;57.10
39751;DHT22;37579;51.074;17.004;2023-02-25T17:13:31;24.60;57.40
39751;DHT22;37579;51.074;17.004;2023-02-25T17:15:58;24.60;57.80
39751;DHT22;37579;51.074;17.004;2023-02-25T17:21:07;24.60;57.80
39751;DHT22;37579;51.074;17.004;2023-02-25T17:23:38;24.60;57.80
39751;DHT22;37579;51.074;17.004;2023-02-25T17:26:05;24.70;57.60
39751;DHT22;37579;51.074;17.004;2023-02-25T17:28:32;24.70;57.60
39751;DHT22;37579;51.074;17.004;2023-02-25T17:31:17;24.80;57.70
39751;DHT22;37579;51.074;17.004;2023-02-25T17:36:12;24.90;57.50
39751;DHT22;37579;51.074;17.004;2023-02-25T17:38:41;24.90;57.70
39751;DHT22;37579;51.074;17.004;2023-02-25T17:41:16;24.80;57.80
39751;DHT22;37579;51.074;17.004;2023-02-25T17:43:42;24.80;57.80
39751;DHT22;37579;51.074;17.004;2023-02-25T17:46:22;24.90;57.90
39751;DHT22;37579;51.074;17.004;2023-02-25T17:51:43;25.00;57.90
39751;DHT22;37579;51.074;17.004;2023-02-25T17:54:15;25.00;58.20
39751;DHT22;37579;51.074;17.004;2023-02-25T17:56:42;25.00;58.40
39751;DHT22;37579;51.074;17.004;2023-02-25T18:01:55;25.00;58.50
39751;DHT22;37579;51.074;17.004;2023-02-25T18:04:22;25.00;58.20
39751;DHT22;37579;51.074;17.004;2023-02-25T18:06:50;25.00;58.10
39751;DHT22;37579;51.074;17.004;2023-02-25T18:09:36;24.90;58.00
39751;DHT22;37579;51.074;17.004;2023-02-25T18:12:04;24.90;57.90
39751;DHT22;37579;51.074;17.004;2023-02-25T18:14:36;24.90;57.90
39751;DHT22;37579;51.074;17.004;2023-02-25T18:17:30;24.90;58.00
39751;DHT22;37579;51.074;17.004;2023-02-25T18:19:59;25.00;58.10
39751;DHT22;37579;51.074;17.004;2023-02-25T18:22:31;25.00;58.10
39751;DHT22;37579;51.074;17.004;2023-02-25T18:25:00;25.00;58.20
39751;DHT22;37579;51.074;17.004;2023-02-25T18:27:31;24.90;58.10
39751;DHT22;37579;51.074;17.004;2023-02-25T18:30:16;24.90;58.00
39751;DHT22;37579;51.074;17.004;2023-02-25T18:32:44;24.90;58.20
39751;DHT22;37579;51.074;17.004;2023-02-25T18:35:10;24.80;58.20
39751;DHT22;37579;51.074;17.004;2023-02-25T18:37:36;24.80;57.90
39751;DHT22;37579;51.074;17.004;2023-02-25T18:40:03;24.80;58.10
39751;DHT22;37579;51.074;17.004;2023-02-25T18:42:29;24.80;58.10
39751;DHT22;37579;51.074;17.004;2023-02-25T18:44:55;24.70;58.10
39751;DHT22;37579;51.074;17.004;2023-02-25T18:47:20;24.80;58.10
39751;DHT22;37579;51.074;17.004;2023-02-25T18:49:46;24.70;57.90
39751;DHT22;37579;51.074;17.004;2023-02-25T18:52:21;24.70;57.90
39751;DHT22;37579;51.074;17.004;2023-02-25T18:54:50;24.70;58.00
39751;DHT22;37579;51.074;17.004;2023-02-25T18:57:22;24.60;58.10
39751;DHT22;37579;51.074;17.004;2023-02-25T18:59:49;24.60;58.10
39751;DHT22;37579;51.074;17.004;2023-02-25T19:02:35;24.60;57.90
39751;DHT22;37579;51.074;17.004;2023-02-25T19:05:04;24.60;58.10
39751;DHT22;37579;51.074;17.004;2023-02-25T19:07:33;24.60;58.00
39751;DHT22;37579;51.074;17.004;2023-02-25T19:09:59;24.60;58.00
39751;DHT22;37579;51.074;17.004;2023-02-25T19:12:27;24.60;58.00
39751;DHT22;37579;51.074;17.004;2023-02-25T19:15:05;24.60;58.10
39751;DHT22;37579;51.074;17.004;2023-02-25T19:17:31;24.60;58.00
39751;DHT22;37579;51.074;17.004;2023-02-25T19:19:57;24.60;58.00
39751;DHT22;37579;51.074;17.004;2023-02-25T19:22:24;24.60;58.00
39751;DHT22;37579;51.074;17.004;2023-02-25T19:24:50;24.50;58.10
39751;DHT22;37579;51.074;17.004;2023-02-25T19:27:25;24.50;58.10
39751;DHT22;37579;51.074;17.004;2023-02-25T19:29:54;24.50;58.10
39751;DHT22;37579;51.074;17.004;2023-02-25T19:32:20;24.50;58.10
39751;DHT22;37579;51.074;17.004;2023-02-25T19:34:48;24.50;58.20
39751;DHT22;37579;51.074;17.004;2023-02-25T19:37:15;24.50;58.10
39751;DHT22;37579;51.074;17.004;2023-02-25T19:39:42;24.50;58.00
39751;DHT22;37579;51.074;17.004;2023-02-25T19:42:09;24.50;58.00
39751;DHT22;37579;51.074;17.004;2023-02-25T19:44:35;24.50;57.90
39751;DHT22;37579;51.074;17.004;2023-02-25T19:47:02;24.50;57.80
39751;DHT22;37579;51.074;17.004;2023-02-25T19:49:29;24.50;58.00
39751;DHT22;37579;51.074;17.004;2023-02-25T19:51:55;24.50;57.80
39751;DHT22;37579;51.074;17.004;2023-02-25T19:54:21;24.50;57.70